Time;durP1;ratioP1;P1;durP2;ratioP2;P2;SDS_P1;SDS_P2;PMS_P1;PMS_P2;Temp;Humidity;BMP_temperature;BMP_pressure;BME280_temperature;BME280_humidity;BME280_pressure;Samples;Min_cycle;Max_cycle;Signal;HPM_P1;HPM_P2
2023/05/03 00:02:11;;;;;;;3.88;1.83;;;;;;;6.90;62.59;102800.97;5057970;28;20025;-78
2023/05/03 00:04:37;;;;;;;4.53;1.83;;;;;;;6.87;63.17;102798.31;5063129;28;20025;-78
2023/05/03 00:07:02;;;;;;;3.17;1.80;;;;;;;6.86;63.36;102799.16;5065273;28;20032;-78
2023/05/03 00:09:28;;;;;;;3.47;1.80;;;;;;;6.83;63.05;102792.22;5056269;28;20052;-78
2023/05/03 00:11:53;;;;;;;3.45;2.00;;;;;;;6.80;63.47;102793.03;5055085;28;20105;-78
2023/05/03 00:14:19;;;;;;;4.88;1.85;;;;;;;6.75;63.92;102794.63;5060886;28;20063;-78
2023/05/03 00:16:44;;;;;;;3.25;1.77;;;;;;;6.73;63.39;102793.72;5062623;28;20057;-78
2023/05/03 00:19:09;;;;;;;4.05;1.70;;;;;;;6.71;63.04;102792.81;5060803;28;20028;-78
2023/05/03 00:21:35;;;;;;;4.38;2.00;;;;;;;6.66;63.29;102791.84;5063982;28;20032;-78
2023/05/03 00:24:00;;;;;;;4.13;1.70;;;;;;;6.61;63.95;102785.69;5054226;28;20036;-78
2023/05/03 00:26:27;;;;;;;2.88;1.77;;;;;;;6.56;64.08;102785.59;5062176;28;20473;-77
2023/05/03 00:28:52;;;;;;;2.63;1.70;;;;;;;6.52;64.08;102784.63;5062371;28;20424;-78
2023/05/03 00:31:18;;;;;;;3.70;1.90;;;;;;;6.50;63.84;102781.13;5063156;28;20103;-78
2023/05/03 00:33:43;;;;;;;6.22;2.05;;;;;;;6.49;64.08;102781.97;5053638;28;20473;-78
2023/05/03 00:36:10;;;;;;;3.33;2.30;;;;;;;6.50;63.23;102788.03;5053426;28;20446;-78
2023/05/03 00:38:36;;;;;;;4.03;1.80;;;;;;;6.47;63.67;102785.38;5054014;28;20095;-78
2023/05/03 00:41:02;;;;;;;3.40;1.90;;;;;;;6.42;64.35;102790.44;5054401;28;20133;-77
2023/05/03 00:43:28;;;;;;;2.70;1.70;;;;;;;6.39;63.64;102785.19;5062700;28;20031;-78
2023/05/03 00:45:54;;;;;;;3.35;1.80;;;;;;;6.37;64.06;102786.88;5073132;28;20473;-77
2023/05/03 00:48:19;;;;;;;2.95;1.73;;;;;;;6.36;64.07;102790.31;5072046;28;20043;-78
2023/05/03 00:50:46;;;;;;;3.40;1.98;;;;;;;6.30;64.38;102788.44;5060197;28;20033;-78
2023/05/03 00:53:12;;;;;;;3.20;1.80;;;;;;;6.29;64.53;102798.75;5072999;28;20103;-78
2023/05/03 00:55:38;;;;;;;3.78;1.92;;;;;;;6.25;65.21;102797.78;5059931;28;20064;-77
2023/05/03 00:58:04;;;;;;;2.67;1.83;;;;;;;6.23;65.36;102794.31;5069412;28;20370;-77
2023/05/03 01:00:31;;;;;;;3.90;1.85;;;;;;;6.20;65.09;102789.94;5072896;28;20035;-78
2023/05/03 01:02:56;;;;;;;3.63;1.73;;;;;;;6.19;64.82;102793.34;5053787;28;20025;-77
2023/05/03 01:05:21;;;;;;;2.67;1.50;;;;;;;6.15;65.03;102794.13;5054732;28;20491;-77
2023/05/03 01:08:12;;;;;;;4.90;1.85;;;;;;;6.15;63.01;102794.13;5055337;28;20044;-77
2023/05/03 01:10:47;;;;;;;3.53;1.88;;;;;;;6.15;64.36;102786.34;5052989;28;20041;-78
2023/05/03 01:13:41;;;;;;;2.88;1.73;;;;;;;6.13;63.21;102784.59;5055133;28;20053;-77
2023/05/03 01:16:12;;;;;;;3.17;1.65;;;;;;;6.11;64.85;102786.25;5053069;28;20025;-77
2023/05/03 01:18:39;;;;;;;3.38;1.90;;;;;;;6.06;64.57;102787.00;5069495;28;20028;-77
2023/05/03 01:21:06;;;;;;;4.38;2.00;;;;;;;6.00;65.25;102786.00;5052644;28;20028;-77
2023/05/03 01:23:56;;;;;;;6.47;2.00;;;;;;;5.97;63.61;102780.75;5059357;28;20028;-77
2023/05/03 01:26:23;;;;;;;3.67;2.17;;;;;;;5.93;65.04;102791.00;5058802;28;20115;-77
2023/05/03 01:28:49;;;;;;;3.50;1.60;;;;;;;5.84;66.12;102789.88;5058099;28;20020;-77
2023/05/03 01:31:21;;;;;;;3.75;1.90;;;;;;;5.77;66.13;102787.13;5058560;28;20047;-77
2023/05/03 01:34:02;;;;;;;2.47;1.70;;;;;;;5.77;65.49;102794.88;5057579;28;20039;-77
2023/05/03 01:36:33;;;;;;;4.20;1.85;;;;;;;5.73;65.66;102799.94;5059329;28;20044;-77
2023/05/03 01:39:05;;;;;;;3.88;1.77;;;;;;;5.71;65.87;102804.19;5056372;28;20477;-77
2023/05/03 01:41:32;;;;;;;3.75;1.83;;;;;;;5.67;66.08;102807.50;5060197;28;20096;-77
2023/05/03 01:43:58;;;;;;;4.75;1.90;;;;;;;5.64;66.55;102797.13;5055063;28;20151;-77
2023/05/03 01:46:23;;;;;;;3.63;1.80;;;;;;;5.59;66.54;102795.28;5054650;28;20483;-77
2023/05/03 01:48:49;;;;;;;2.60;1.80;;;;;;;5.59;66.32;102795.28;5060250;28;20032;-77
2023/05/03 01:51:14;;;;;;;3.58;1.95;;;;;;;5.59;66.67;102795.28;5056129;28;20400;-77
2023/05/03 01:53:40;;;;;;;3.35;1.90;;;;;;;5.60;65.97;102791.88;5055706;28;20057;-77
2023/05/03 01:56:07;;;;;;;3.92;1.88;;;;;;;5.58;66.21;102792.63;5062649;28;20043;-77
2023/05/03 01:58:32;;;;;;;4.05;2.08;;;;;;;5.54;67.06;102799.44;5057732;28;20020;-77
2023/05/03 02:00:57;;;;;;;2.38;1.65;;;;;;;5.50;66.90;102795.03;5058391;28;20028;-77
2023/05/03 02:03:23;;;;;;;4.07;1.98;;;;;;;5.49;66.89;102798.44;5054333;28;20086;-77
2023/05/03 02:05:48;;;;;;;4.35;1.77;;;;;;;5.48;67.40;102801.84;5061908;28;20028;-77
2023/05/03 02:08:13;;;;;;;2.55;1.67;;;;;;;5.47;67.27;102802.69;5061214;28;20021;-77
2023/05/03 02:10:38;;;;;;;4.75;1.70;;;;;;;5.47;67.13;102805.25;5056120;28;20056;-77
2023/05/03 02:13:04;;;;;;;2.85;1.58;;;;;;;5.45;67.54;102799.19;5060546;28;20461;-77
2023/05/03 02:15:29;;;;;;;2.30;1.67;;;;;;;5.42;67.15;102801.69;5057306;28;20033;-77
2023/05/03 02:17:54;;;;;;;3.65;1.70;;;;;;;5.41;68.13;102800.81;5057972;28;20028;-77
2023/05/03 02:20:20;;;;;;;3.35;1.60;;;;;;;5.37;67.95;102796.41;5058089;28;20025;-77
2023/05/03 02:22:45;;;;;;;2.28;1.70;;;;;;;5.34;68.36;102803.19;5059253;28;20075;-78
2023/05/03 02:25:10;;;;;;;2.45;1.70;;;;;;;5.31;68.73;102797.09;5058366;28;20077;-77
2023/05/03 02:27:36;;;;;;;2.45;1.60;;;;;;;5.29;68.76;102792.72;5069613;28;20491;-77
2023/05/03 02:30:01;;;;;;;2.63;1.60;;;;;;;5.26;68.68;102790.94;5057289;28;20037;-77
2023/05/03 02:32:26;;;;;;;3.60;1.75;;;;;;;5.19;68.92;102794.19;5062419;28;20107;-77
2023/05/03 02:34:52;;;;;;;2.50;1.67;;;;;;;5.17;68.39;102780.34;5071422;28;20029;-77
2023/05/03 02:37:18;;;;;;;1.92;1.40;;;;;;;5.15;68.56;102782.00;5071084;28;20051;-77
2023/05/03 02:39:43;;;;;;;4.15;1.80;;;;;;;5.13;67.91;102781.97;5071599;28;20056;-77
2023/05/03 02:42:08;;;;;;;3.35;1.75;;;;;;;5.09;67.79;102771.53;5071373;28;20493;-77
2023/05/03 02:44:34;;;;;;;3.10;1.65;;;;;;;5.10;68.06;102773.28;5070242;28;20120;-77
2023/05/03 02:46:59;;;;;;;4.78;1.95;;;;;;;5.05;68.91;102767.97;5070505;28;20396;-77
2023/05/03 02:49:25;;;;;;;6.20;2.35;;;;;;;5.05;68.53;102764.53;5064971;28;20055;-77
2023/05/03 02:51:51;;;;;;;5.22;1.83;;;;;;;5.06;68.60;102758.56;5067241;28;20029;-77
2023/05/03 02:54:17;;;;;;;3.25;1.90;;;;;;;5.04;68.65;102755.91;5068380;28;20338;-77
2023/05/03 02:56:42;;;;;;;4.20;2.13;;;;;;;5.05;68.59;102746.47;5064150;28;20020;-77
2023/05/03 02:59:07;;;;;;;4.18;2.17;;;;;;;5.06;68.38;102751.66;5063182;28;20035;-77
2023/05/03 03:01:33;;;;;;;4.97;2.17;;;;;;;5.08;68.18;102738.84;5061354;28;20036;-77
2023/05/03 03:03:58;;;;;;;5.07;2.33;;;;;;;5.09;67.61;102735.41;5052289;28;20032;-77
2023/05/03 03:06:24;;;;;;;5.15;2.35;;;;;;;5.11;67.62;102733.75;5059300;28;20024;-77
2023/05/03 03:08:49;;;;;;;3.40;2.10;;;;;;;5.09;67.75;102725.97;5059541;28;20028;-77
2023/05/03 03:11:14;;;;;;;5.75;2.58;;;;;;;5.12;67.58;102730.34;5070538;28;20040;-77
2023/05/03 03:13:40;;;;;;;6.88;2.40;;;;;;;5.10;68.15;102732.00;5060959;28;20473;-77
2023/05/03 03:16:06;;;;;;;4.32;2.28;;;;;;;5.09;68.01;102733.69;5057006;28;20031;-77
2023/05/03 03:18:33;;;;;;;3.45;2.20;;;;;;;5.05;68.01;102747.34;5067138;28;20026;-77
2023/05/03 03:20:59;;;;;;;4.50;2.30;;;;;;;5.06;68.02;102750.81;5062815;28;20085;-77
2023/05/03 03:23:25;;;;;;;2.92;2.20;;;;;;;5.03;68.40;102758.47;5054954;28;20371;-77
2023/05/03 03:25:50;;;;;;;3.38;2.10;;;;;;;5.01;68.96;102754.13;5058218;28;20047;-77
2023/05/03 03:28:16;;;;;;;4.95;2.15;;;;;;;4.99;68.40;102755.78;5059345;28;20072;-77
2023/05/03 03:30:41;;;;;;;4.57;2.25;;;;;;;4.97;69.25;102756.59;5060374;28;20052;-77
2023/05/03 03:33:06;;;;;;;4.50;2.10;;;;;;;4.96;69.45;102760.00;5058496;28;20043;-77
2023/05/03 03:35:32;;;;;;;4.50;2.30;;;;;;;4.97;68.58;102767.75;5071529;28;20046;-77
2023/05/03 03:37:58;;;;;;;3.88;2.00;;;;;;;4.94;69.09;102757.38;5072509;28;20035;-77
2023/05/03 03:40:23;;;;;;;3.28;2.00;;;;;;;4.90;69.58;102770.13;5076543;28;20420;-77
2023/05/03 03:42:48;;;;;;;3.90;2.30;;;;;;;4.88;68.36;102767.50;5055256;28;20479;-77
2023/05/03 03:45:13;;;;;;;6.45;2.38;;;;;;;4.83;69.23;102769.06;5057488;28;20036;-77
2023/05/03 03:47:39;;;;;;;3.25;2.10;;;;;;;4.75;69.27;102757.66;5057985;28;20033;-77
2023/05/03 03:50:05;;;;;;;5.57;2.40;;;;;;;4.77;69.93;102761.16;5058614;28;20028;-77
2023/05/03 03:52:30;;;;;;;2.90;1.98;;;;;;;4.76;70.04;102757.69;5058801;28;20021;-77
2023/05/03 03:54:56;;;;;;;3.38;2.05;;;;;;;4.76;69.42;102757.69;5059204;28;20036;-77
2023/05/03 03:57:23;;;;;;;5.00;2.30;;;;;;;4.75;69.89;102761.09;5059374;28;20498;-77
2023/05/03 03:59:49;;;;;;;5.20;2.30;;;;;;;4.74;69.73;102756.78;5054283;28;20036;-77
2023/05/03 04:02:14;;;;;;;3.55;2.22;;;;;;;4.73;69.59;102761.91;5066997;28;20028;-77
2023/05/03 04:04:39;;;;;;;3.40;2.33;;;;;;;4.72;69.27;102755.84;5059260;28;20027;-77
2023/05/03 04:07:05;;;;;;;4.25;2.20;;;;;;;4.75;69.00;102755.09;5055026;28;20051;-77
2023/05/03 04:09:30;;;;;;;4.40;2.75;;;;;;;4.73;68.33;102751.59;5054790;28;20109;-77
2023/05/03 04:11:55;;;;;;;4.15;2.33;;;;;;;4.70;69.77;102762.66;5065606;28;20049;-77
2023/05/03 04:14:21;;;;;;;5.05;2.60;;;;;;;4.68;69.72;102762.63;5057040;28;20028;-77
2023/05/03 04:16:46;;;;;;;4.32;2.40;;;;;;;4.69;69.54;102766.09;5060161;28;20029;-77
2023/05/03 04:19:12;;;;;;;3.20;2.22;;;;;;;4.70;69.66;102771.28;5059688;28;20021;-77
2023/05/03 04:21:37;;;;;;;5.40;2.10;;;;;;;4.67;69.60;102781.50;5057523;28;20401;-77
2023/05/03 04:24:04;;;;;;;5.28;2.40;;;;;;;4.65;70.39;102774.56;5060935;28;20040;-77
2023/05/03 04:26:30;;;;;;;4.30;2.33;;;;;;;4.62;70.67;102785.63;5066448;28;20437;-77
2023/05/03 04:28:56;;;;;;;6.43;2.17;;;;;;;4.60;70.41;102783.84;5064774;28;20016;-77
2023/05/03 04:31:21;;;;;;;4.90;2.33;;;;;;;4.60;70.90;102786.44;5062504;28;20041;-76
2023/05/03 04:33:46;;;;;;;4.80;2.42;;;;;;;4.60;70.58;102784.75;5058575;28;20486;-77
2023/05/03 04:36:15;;;;;;;4.88;2.33;;;;;;;4.62;70.73;102780.47;5062181;28;20500;-77
2023/05/03 04:38:42;;;;;;;4.00;2.20;;;;;;;4.66;71.23;102792.66;5064599;28;20051;-77
2023/05/03 04:41:08;;;;;;;4.85;2.40;;;;;;;4.68;71.60;102785.84;5058987;28;20906;-77
2023/05/03 04:43:34;;;;;;;4.50;2.47;;;;;;;4.68;71.18;102785.84;5059653;28;20037;-77
2023/05/03 04:45:59;;;;;;;4.00;2.50;;;;;;;4.71;70.42;102785.94;5056824;28;20031;-77
2023/05/03 04:48:24;;;;;;;3.78;2.33;;;;;;;4.78;69.78;102793.88;5060458;28;20127;-77
2023/05/03 04:50:51;;;;;;;5.13;2.55;;;;;;;4.81;70.57;102799.09;5057297;28;20524;-77
2023/05/03 04:53:16;;;;;;;6.03;2.70;;;;;;;4.84;70.46;102799.19;5060689;28;20138;-77
2023/05/03 04:55:41;;;;;;;4.63;2.60;;;;;;;4.88;70.67;102801.03;5061405;28;20474;-77
2023/05/03 04:58:07;;;;;;;4.18;2.50;;;;;;;4.93;70.50;102806.31;5058421;28;20059;-77
2023/05/03 05:00:32;;;;;;;4.25;2.60;;;;;;;4.96;70.56;102816.75;5055467;28;20500;-77
2023/05/03 05:02:58;;;;;;;5.03;2.30;;;;;;;4.99;69.96;102814.25;5054821;28;21056;-78
2023/05/03 05:05:23;;;;;;;3.30;2.17;;;;;;;5.01;70.50;102816.03;5056561;28;20025;-77
2023/05/03 05:07:48;;;;;;;3.95;2.38;;;;;;;5.07;69.67;102828.22;5058834;28;20033;-77
2023/05/03 05:10:13;;;;;;;4.95;2.78;;;;;;;5.09;70.26;102824.00;5059519;28;20060;-77
2023/05/03 05:12:39;;;;;;;5.85;2.63;;;;;;;5.13;70.40;102841.31;5055077;28;20025;-77
2023/05/03 05:15:05;;;;;;;5.93;2.53;;;;;;;5.19;70.67;102839.75;5059873;28;20039;-77
2023/05/03 05:17:30;;;;;;;4.50;2.33;;;;;;;5.22;70.85;102838.13;5055432;28;20039;-77
2023/05/03 05:19:55;;;;;;;4.90;2.67;;;;;;;5.29;71.29;102837.50;5056308;28;20567;-77
2023/05/03 05:22:21;;;;;;;5.35;2.55;;;;;;;5.37;71.17;102841.97;5056997;28;20021;-77
2023/05/03 05:24:46;;;;;;;4.63;2.55;;;;;;;5.41;72.03;102836.09;5055563;28;20033;-77
2023/05/03 05:27:11;;;;;;;4.40;2.75;;;;;;;5.48;70.60;102838.00;5060443;28;20472;-77
2023/05/03 05:29:37;;;;;;;4.30;2.72;;;;;;;5.56;71.42;102833.91;5054814;28;20023;-77
2023/05/03 05:32:04;;;;;;;5.53;2.80;;;;;;;5.67;71.34;102838.50;5061153;28;20043;-77
2023/05/03 05:34:29;;;;;;;5.03;2.88;;;;;;;5.77;71.92;102836.19;5057558;28;20016;-77
2023/05/03 05:36:55;;;;;;;5.53;3.25;;;;;;;5.87;71.08;102837.31;5058982;28;20024;-77
2023/05/03 05:39:22;;;;;;;5.30;2.92;;;;;;;5.96;71.42;102830.66;5062454;28;20028;-77
2023/05/03 05:41:47;;;;;;;5.78;3.10;;;;;;;6.02;70.86;102831.72;5056168;28;20025;-77
2023/05/03 05:44:12;;;;;;;5.03;3.00;;;;;;;6.10;70.28;102834.50;5059575;28;20327;-77
2023/05/03 05:46:38;;;;;;;4.90;2.83;;;;;;;6.17;70.00;102836.38;5056244;28;20032;-77
2023/05/03 05:49:03;;;;;;;3.80;2.70;;;;;;;6.26;71.07;102837.47;5054701;28;20067;-77
2023/05/03 05:51:30;;;;;;;4.60;2.50;;;;;;;6.34;69.90;102846.25;5056014;28;20070;-77
2023/05/03 05:53:56;;;;;;;5.80;2.70;;;;;;;6.44;69.82;102839.59;5059043;28;20019;-77
2023/05/03 05:56:21;;;;;;;6.30;3.53;;;;;;;6.52;69.63;102838.09;5060916;28;20032;-77
2023/05/03 05:58:46;;;;;;;7.05;3.00;;;;;;;6.61;68.28;102845.19;5055903;28;20098;-77
2023/05/03 06:01:12;;;;;;;6.00;3.10;;;;;;;6.65;68.41;102845.28;5057414;28;20139;-77
2023/05/03 06:03:37;;;;;;;4.88;2.95;;;;;;;6.68;68.88;102847.06;5061065;28;20098;-77
2023/05/03 06:06:02;;;;;;;4.40;3.00;;;;;;;6.73;68.92;102848.03;5059605;28;20103;-77
2023/05/03 06:08:28;;;;;;;5.72;2.90;;;;;;;6.78;67.80;102848.13;5061166;28;20473;-77
2023/05/03 06:10:53;;;;;;;7.90;3.10;;;;;;;6.84;67.87;102846.56;5058682;28;20560;-77
2023/05/03 06:13:18;;;;;;;4.72;2.97;;;;;;;6.92;67.49;102844.13;5059703;28;22147;-77
2023/05/03 06:15:44;;;;;;;5.22;2.97;;;;;;;6.98;67.77;102838.25;5058470;28;20545;-77
2023/05/03 06:18:09;;;;;;;7.00;3.13;;;;;;;7.04;67.43;102838.38;5061260;28;20473;-78
2023/05/03 06:20:34;;;;;;;6.07;3.05;;;;;;;7.10;68.35;102846.28;5059602;28;20024;-77
2023/05/03 06:23:00;;;;;;;5.35;2.90;;;;;;;7.17;68.19;102834.31;5059188;28;20039;-78
2023/05/03 06:25:25;;;;;;;4.07;2.70;;;;;;;7.27;68.38;102840.56;5061046;28;20021;-77
2023/05/03 06:27:51;;;;;;;4.78;2.88;;;;;;;7.38;68.56;102833.88;5058779;28;20024;-77
2023/05/03 06:30:16;;;;;;;5.57;2.97;;;;;;;7.47;67.56;102837.50;5059520;28;20020;-77
2023/05/03 06:32:42;;;;;;;6.25;2.70;;;;;;;7.55;70.43;102831.63;5054297;28;20021;-77
2023/05/03 06:35:11;;;;;;;5.05;2.60;;;;;;;7.65;69.29;102835.28;5056053;28;20986;-77
2023/05/03 06:37:36;;;;;;;7.18;3.00;;;;;;;7.72;67.72;102834.53;5054577;28;20509;-77
2023/05/03 06:40:02;;;;;;;5.35;2.95;;;;;;;7.81;68.52;102832.97;5058086;28;20020;-77
2023/05/03 06:42:27;;;;;;;5.45;2.97;;;;;;;7.89;67.99;102821.00;5059621;28;20032;-77
2023/05/03 06:44:52;;;;;;;6.07;2.60;;;;;;;7.97;69.16;102819.41;5055196;28;20029;-77
2023/05/03 06:47:19;;;;;;;3.78;2.47;;;;;;;8.05;70.88;102823.00;5058491;28;20487;-77
2023/05/03 06:49:45;;;;;;;4.53;2.72;;;;;;;8.13;68.99;102817.94;5055108;28;20500;-77
2023/05/03 06:52:10;;;;;;;11.77;3.50;;;;;;;8.18;67.79;102808.53;5053698;28;20041;-77
2023/05/03 06:54:35;;;;;;;7.40;3.28;;;;;;;8.25;67.58;102813.81;5057142;28;20028;-77
2023/05/03 06:57:01;;;;;;;4.57;3.00;;;;;;;8.31;68.17;102812.19;5057411;28;20013;-77
2023/05/03 06:59:26;;;;;;;7.35;3.13;;;;;;;8.39;67.65;102824.38;5060403;28;20026;-77
2023/05/03 07:01:52;;;;;;;11.10;3.67;;;;;;;8.45;65.82;102816.72;5052743;28;20067;-77
2023/05/03 07:04:17;;;;;;;8.07;3.38;;;;;;;8.51;68.24;102811.66;5062141;28;20040;-77
2023/05/03 07:06:42;;;;;;;5.25;2.85;;;;;;;8.53;66.22;102814.25;5061107;28;20021;-77
2023/05/03 07:09:09;;;;;;;12.25;3.63;;;;;;;8.57;68.67;102811.72;5058202;28;20057;-77
2023/05/03 07:11:37;;;;;;;5.82;2.95;;;;;;;8.62;66.54;102812.69;5061719;28;20211;-77
2023/05/03 07:14:02;;;;;;;6.03;2.72;;;;;;;8.64;64.91;102816.16;5057940;28;20234;-77
2023/05/03 07:16:28;;;;;;;6.05;3.20;;;;;;;8.67;64.93;102806.69;5061008;28;20107;-77
2023/05/03 07:18:54;;;;;;;7.85;3.30;;;;;;;8.73;66.45;102810.25;5060313;28;20020;-77
2023/05/03 07:21:19;;;;;;;6.70;3.72;;;;;;;8.78;64.36;102807.69;5063117;28;20024;-77
2023/05/03 07:23:44;;;;;;;5.60;2.88;;;;;;;8.86;65.46;102808.69;5060705;28;20063;-77
2023/05/03 07:26:09;;;;;;;6.05;3.03;;;;;;;8.93;64.52;102805.31;5060680;28;20492;-77
2023/05/03 07:28:35;;;;;;;6.22;2.72;;;;;;;8.96;63.36;102818.31;5058859;28;20036;-77
2023/05/03 07:31:02;;;;;;;6.93;2.75;;;;;;;9.02;65.06;102819.25;5061013;28;20029;-77
2023/05/03 07:33:28;;;;;;;4.10;2.47;;;;;;;9.05;64.26;102819.31;5057296;28;20099;-77
2023/05/03 07:35:53;;;;;;;7.13;2.55;;;;;;;9.09;61.58;102805.50;5059479;28;20158;-77
2023/05/03 07:38:18;;;;;;;3.80;2.30;;;;;;;9.11;63.47;102815.06;5065191;28;20043;-78
2023/05/03 07:40:43;;;;;;;4.28;2.35;;;;;;;9.16;62.53;102803.84;5061859;28;20031;-77
2023/05/03 07:43:09;;;;;;;5.32;2.40;;;;;;;9.19;63.35;102804.75;5058443;28;20027;-77
2023/05/03 07:45:35;;;;;;;2.95;2.08;;;;;;;9.25;62.92;102799.63;5062067;28;20051;-77
2023/05/03 07:48:01;;;;;;;4.68;2.38;;;;;;;9.30;63.14;102796.22;5059409;28;20466;-77
2023/05/03 07:50:26;;;;;;;4.60;2.50;;;;;;;9.30;61.50;102797.09;5061034;28;20056;-77
2023/05/03 07:52:51;;;;;;;5.38;2.40;;;;;;;9.33;61.18;102788.47;5055825;28;20424;-77
2023/05/03 07:55:18;;;;;;;5.22;2.50;;;;;;;9.37;62.63;102792.84;5057147;28;20021;-78
2023/05/03 07:57:44;;;;;;;6.03;2.88;;;;;;;9.40;61.07;102782.47;5061761;28;20025;-77
2023/05/03 08:00:11;;;;;;;5.93;2.70;;;;;;;9.42;60.04;102783.34;5055995;28;20047;-77
2023/05/03 08:02:36;;;;;;;5.15;2.45;;;;;;;9.46;61.97;102777.34;5059585;28;20138;-77
2023/05/03 08:05:04;;;;;;;3.47;2.25;;;;;;;9.51;60.92;102766.97;5055562;28;20030;-77
2023/05/03 08:07:29;;;;;;;4.20;2.42;;;;;;;9.55;60.78;102769.66;5060038;28;20086;-78
2023/05/03 08:09:57;;;;;;;5.93;2.53;;;;;;;9.63;60.18;102767.13;5065335;28;20045;-77
2023/05/03 08:12:23;;;;;;;4.10;2.10;;;;;;;9.68;62.41;102760.22;5057871;28;20115;-77
2023/05/03 08:14:48;;;;;;;3.30;2.03;;;;;;;9.75;63.13;102761.13;5058392;28;20043;-77
2023/05/03 08:17:13;;;;;;;4.75;2.40;;;;;;;9.80;61.26;102769.00;5058476;28;20024;-77
2023/05/03 08:19:38;;;;;;;3.13;2.05;;;;;;;9.82;60.26;102756.88;5058174;28;20454;-77
2023/05/03 08:22:04;;;;;;;3.35;2.13;;;;;;;9.86;62.93;102756.03;5056957;28;20024;-77
2023/05/03 08:24:29;;;;;;;3.92;2.10;;;;;;;9.91;58.48;102745.66;5058205;28;20766;-77
2023/05/03 08:26:55;;;;;;;6.18;2.33;;;;;;;9.93;59.06;102759.56;5060014;28;20016;-78
2023/05/03 08:29:20;;;;;;;4.18;2.45;;;;;;;9.94;59.05;102751.78;5058433;28;20020;-77
2023/05/03 08:31:46;;;;;;;3.30;2.17;;;;;;;9.96;59.73;102759.56;5056935;28;20461;-77
2023/05/03 08:34:12;;;;;;;5.20;2.58;;;;;;;10.00;59.37;102756.16;5056446;28;20009;-78
2023/05/03 08:36:37;;;;;;;4.07;2.22;;;;;;;10.06;59.61;102761.41;5056742;28;20571;-77
2023/05/03 08:39:05;;;;;;;4.15;2.00;;;;;;;10.09;59.23;102756.22;5057308;28;20024;-77
2023/05/03 08:41:31;;;;;;;4.68;2.53;;;;;;;10.13;58.00;102757.13;5056721;28;20078;-77
2023/05/03 08:43:58;;;;;;;4.35;2.05;;;;;;;10.18;59.80;102756.28;5057161;28;20025;-77
2023/05/03 08:46:26;;;;;;;5.43;2.20;;;;;;;10.23;59.20;102751.09;5058752;28;20428;-77
2023/05/03 08:48:53;;;;;;;4.18;2.15;;;;;;;10.25;59.86;102748.50;5055831;28;20048;-77
2023/05/03 08:51:20;;;;;;;4.47;2.17;;;;;;;10.29;59.29;102758.06;5058134;28;20025;-78
2023/05/03 08:53:45;;;;;;;5.50;2.30;;;;;;;10.31;58.84;102745.94;5055681;28;20021;-77
2023/05/03 08:56:19;;;;;;;4.50;2.13;;;;;;;10.34;58.81;102735.56;5056824;28;20043;-77
2023/05/03 08:58:44;;;;;;;5.75;2.25;;;;;;;10.38;58.96;102747.78;5056483;28;20025;-78
2023/05/03 09:01:09;;;;;;;14.88;2.90;;;;;;;10.43;58.16;102746.03;5059674;28;20027;-77
2023/05/03 09:03:35;;;;;;;6.65;2.40;;;;;;;10.45;57.59;102743.47;5057048;28;20086;-78
2023/05/03 09:06:01;;;;;;;4.13;2.30;;;;;;;10.48;57.94;102746.09;5059437;28;20050;-77
2023/05/03 09:08:31;;;;;;;6.30;2.40;;;;;;;10.50;56.78;102746.97;5059230;28;20028;-77
2023/05/03 09:10:56;;;;;;;7.75;2.63;;;;;;;10.55;57.61;102758.25;5062202;28;20570;-78
2023/05/03 09:13:31;;;;;;;4.45;2.65;;;;;;;10.61;58.22;102754.81;5059157;28;20048;-77
2023/05/03 09:15:57;;;;;;;4.78;2.72;;;;;;;10.65;55.03;102756.56;5058193;28;20024;-78
2023/05/03 09:18:23;;;;;;;5.57;2.38;;;;;;;10.70;57.19;102760.09;5057208;28;20033;-77
2023/05/03 09:20:50;;;;;;;4.97;2.60;;;;;;;10.78;57.38;102765.31;5060348;28;20024;-77
2023/05/03 09:23:29;;;;;;;5.30;2.47;;;;;;;10.83;56.79;102752.31;5056358;28;20036;-77
2023/05/03 09:25:55;;;;;;;4.82;2.58;;;;;;;10.88;58.14;102753.22;5060732;28;20174;-78
2023/05/03 09:28:21;;;;;;;4.68;2.28;;;;;;;10.92;54.27;102754.97;5056989;28;20112;-77
2023/05/03 09:30:47;;;;;;;4.25;2.10;;;;;;;10.95;55.25;102752.34;5057109;28;20021;-78
2023/05/03 09:33:21;;;;;;;6.28;2.55;;;;;;;10.97;57.12;102753.22;5059711;28;20469;-77
2023/05/03 09:36:03;;;;;;;5.90;2.33;;;;;;;10.98;56.81;102760.19;5057486;28;20029;-78
2023/05/03 09:38:31;;;;;;;6.10;2.30;;;;;;;11.01;57.35;102757.59;5054107;28;20028;-78
2023/05/03 09:40:57;;;;;;;8.00;2.55;;;;;;;11.03;59.69;102753.25;5061033;28;21238;-78
2023/05/03 09:43:22;;;;;;;6.38;2.85;;;;;;;11.07;59.72;102748.94;5053046;28;20461;-78
2023/05/03 09:45:48;;;;;;;5.40;2.40;;;;;;;11.10;56.54;102753.28;5056022;28;20021;-78
2023/05/03 09:48:14;;;;;;;5.60;2.55;;;;;;;11.13;56.84;102746.34;5057601;28;20048;-77
2023/05/03 09:50:41;;;;;;;8.73;2.40;;;;;;;11.14;54.40;102736.78;5058911;28;20093;-77
2023/05/03 09:53:07;;;;;;;6.70;2.53;;;;;;;11.15;54.77;102742.03;5053685;28;20036;-78
2023/05/03 09:55:37;;;;;;;6.78;2.35;;;;;;;11.18;54.48;102741.16;5056883;28;20409;-77
2023/05/03 09:58:07;;;;;;;3.97;2.60;;;;;;;11.25;57.07;102737.69;5056522;28;20079;-78
2023/05/03 10:00:36;;;;;;;4.18;2.15;;;;;;;11.24;55.24;102736.81;5057641;28;20060;-77
2023/05/03 10:03:06;;;;;;;5.88;2.40;;;;;;;11.22;55.74;102737.69;5054423;28;20021;-78
2023/05/03 10:05:36;;;;;;;5.35;2.50;;;;;;;11.21;54.89;102730.75;5057993;28;20025;-78
2023/05/03 10:08:04;;;;;;;6.20;2.42;;;;;;;11.23;55.23;102729.88;5059372;28;20023;-78
2023/05/03 10:10:32;;;;;;;5.93;2.42;;;;;;;11.24;54.16;102721.19;5062165;28;20085;-77
2023/05/03 10:13:00;;;;;;;3.33;2.17;;;;;;;11.30;56.44;102725.53;5059775;28;20190;-77
2023/05/03 10:15:28;;;;;;;5.30;2.30;;;;;;;11.35;54.95;102729.03;5059125;28;20020;-77
2023/05/03 10:17:58;;;;;;;3.90;2.40;;;;;;;11.38;54.19;102723.81;5056197;28;20049;-77
2023/05/03 10:20:29;;;;;;;5.38;2.47;;;;;;;11.43;55.80;102726.41;5052023;28;20439;-78
2023/05/03 10:23:07;;;;;;;3.72;2.20;;;;;;;11.49;56.30;102722.94;5057404;28;20466;-78
2023/05/03 10:25:34;;;;;;;4.97;2.55;;;;;;;11.51;54.14;102731.63;5059654;28;20028;-77
2023/05/03 10:28:00;;;;;;;4.03;2.30;;;;;;;11.54;54.30;102729.91;5054431;28;20370;-78
2023/05/03 10:30:37;;;;;;;6.03;2.33;;;;;;;11.60;55.47;102731.66;5056921;28;20527;-78
2023/05/03 10:33:11;;;;;;;2.80;2.13;;;;;;;11.68;55.76;102727.31;5054948;28;20017;-77
2023/05/03 10:35:39;;;;;;;4.38;2.28;;;;;;;11.72;54.88;102719.50;5056235;28;20035;-77
2023/05/03 10:38:25;;;;;;;4.38;2.60;;;;;;;11.78;54.94;102725.56;5055583;28;20028;-78
2023/05/03 10:40:51;;;;;;;3.80;2.45;;;;;;;11.81;55.04;102728.19;5057048;28;20485;-78
2023/05/03 10:43:32;;;;;;;4.95;2.28;;;;;;;11.83;55.12;102728.16;5060754;28;20031;-77
2023/05/03 10:46:00;;;;;;;4.40;2.20;;;;;;;11.87;55.76;102736.88;5058901;28;20040;-77
2023/05/03 10:48:27;;;;;;;4.28;2.25;;;;;;;11.87;53.77;102731.66;5067744;28;20477;-78
2023/05/03 10:50:53;;;;;;;4.57;2.22;;;;;;;11.92;53.41;102737.72;5067548;28;20033;-78
2023/05/03 10:53:30;;;;;;;3.70;2.35;;;;;;;11.95;54.19;102732.50;5054163;28;20024;-78
2023/05/03 10:56:04;;;;;;;5.85;2.55;;;;;;;11.95;54.32;102735.13;5053484;28;20021;-78
2023/05/03 10:58:34;;;;;;;4.18;2.22;;;;;;;11.99;55.29;102732.53;5055583;28;20063;-77
2023/05/03 11:01:01;;;;;;;4.45;2.30;;;;;;;12.02;53.50;102725.56;5054747;28;20450;-77
2023/05/03 11:03:48;;;;;;;4.30;2.45;;;;;;;12.04;52.79;102718.63;5057418;28;20012;-77
2023/05/03 11:06:36;;;;;;;3.70;2.25;;;;;;;12.12;54.41;102716.88;5057470;28;20378;-78
2023/05/03 11:09:05;;;;;;;3.80;2.38;;;;;;;12.15;53.11;102711.63;5058140;28;20028;-77
2023/05/03 11:11:31;;;;;;;3.97;2.33;;;;;;;12.22;54.68;102712.47;5055972;28;20421;-77
2023/05/03 11:13:56;;;;;;;8.38;3.00;;;;;;;12.25;53.93;102713.34;5054774;28;20032;-77
2023/05/03 11:16:22;;;;;;;7.15;3.22;;;;;;;12.28;53.25;102718.56;5053645;28;20051;-77
2023/05/03 11:18:47;;;;;;;4.95;2.70;;;;;;;12.30;52.98;102711.59;5056376;28;20035;-77
2023/05/03 11:21:14;;;;;;;6.63;2.60;;;;;;;12.35;53.89;102700.28;5057949;28;20442;-78
2023/05/03 11:23:40;;;;;;;3.83;2.30;;;;;;;12.43;53.29;102695.91;5059789;28;20086;-77
2023/05/03 11:26:06;;;;;;;12.05;2.95;;;;;;;12.47;52.51;102700.22;5055710;28;20104;-77
2023/05/03 11:28:31;;;;;;;4.85;2.95;;;;;;;12.52;52.31;102690.63;5056461;28;20111;-78
2023/05/03 11:30:57;;;;;;;7.60;2.60;;;;;;;12.54;54.04;102694.13;5059413;28;20431;-77